Time;durP1;ratioP1;P1;durP2;ratioP2;P2;SDS_P1;SDS_P2;PMS_P1;PMS_P2;Temp;Humidity;BMP_temperature;BMP_pressure;BME280_temperature;BME280_humidity;BME280_pressure;Samples;Min_cycle;Max_cycle;Signal;HPM_P1;HPM_P2
2022/06/11 00:00:57;;;;;;;3.93;1.80;;;;;;;;;;5066123;28;19913;-75
2022/06/11 00:03:24;;;;;;;4.57;1.80;;;;;;;;;;5069200;28;20043;-75
2022/06/11 00:05:51;;;;;;;4.30;1.60;;;;;;;;;;5072188;28;20027;-75
2022/06/11 00:08:18;;;;;;;2.60;1.60;;;;;;;;;;5072214;28;20032;-74
2022/06/11 00:10:45;;;;;;;5.27;1.80;;;;;;;;;;5071992;28;20021;-75
2022/06/11 00:13:12;;;;;;;3.00;1.70;;;;;;;;;;5071972;28;20028;-75
2022/06/11 00:15:39;;;;;;;2.77;1.60;;;;;;;;;;5081915;28;20024;-75
2022/06/11 00:18:06;;;;;;;5.17;1.57;;;;;;;;;;5086791;28;20085;-75
2022/06/11 00:20:32;;;;;;;1.97;1.33;;;;;;;;;;5086174;28;20402;-75
2022/06/11 00:22:59;;;;;;;6.87;1.80;;;;;;;;;;5086670;28;20028;-75
2022/06/11 00:25:27;;;;;;;6.07;2.07;;;;;;;;;;5088591;28;20028;-75
2022/06/11 00:27:53;;;;;;;3.03;1.60;;;;;;;;;;5091812;28;20027;-75
2022/06/11 00:30:20;;;;;;;3.73;1.30;;;;;;;;;;5091947;28;20504;-74
2022/06/11 00:32:48;;;;;;;2.83;1.53;;;;;;;;;;5092114;28;20031;-74
2022/06/11 00:35:16;;;;;;;6.40;1.70;;;;;;;;;;5091657;28;20028;-75
2022/06/11 00:37:43;;;;;;;5.17;1.73;;;;;;;;;;5089742;28;20052;-75
2022/06/11 00:40:11;;;;;;;3.27;1.40;;;;;;;;;;5086562;28;20195;-75
2022/06/11 00:42:37;;;;;;;8.43;1.53;;;;;;;;;;5086855;28;20024;-75
2022/06/11 00:45:16;;;;;;;5.60;1.40;;;;;;;;;;5086518;28;20055;-75
2022/06/11 00:47:44;;;;;;;2.10;1.37;;;;;;;;;;5088089;28;20020;-75
2022/06/11 00:50:20;;;;;;;9.43;1.53;;;;;;;;;;5091972;28;20051;-75
2022/06/11 00:52:47;;;;;;;3.47;1.67;;;;;;;;;;5092035;28;20017;-74
2022/06/11 00:55:17;;;;;;;5.20;1.57;;;;;;;;;;5094302;28;20024;-75
2022/06/11 00:57:55;;;;;;;4.10;1.80;;;;;;;;;;5095105;28;20059;-75
2022/06/11 01:00:25;;;;;;;3.57;1.50;;;;;;;;;;5092727;28;20115;-75
2022/06/11 01:02:52;;;;;;;3.93;1.53;;;;;;;;;;5090126;28;20112;-75
2022/06/11 01:05:20;;;;;;;9.67;2.30;;;;;;;;;;5089258;28;20039;-75
2022/06/11 01:07:54;;;;;;;3.33;1.67;;;;;;;;;;5088837;28;20583;-75
2022/06/11 01:10:26;;;;;;;4.17;1.90;;;;;;;;;;5092031;28;20024;-75
2022/06/11 01:12:58;;;;;;;3.27;1.83;;;;;;;;;;5095375;28;20024;-75
2022/06/11 01:15:29;;;;;;;4.80;1.70;;;;;;;;;;5095458;28;20055;-75
2022/06/11 01:18:10;;;;;;;3.90;1.97;;;;;;;;;;5095405;28;20020;-74
2022/06/11 01:20:47;;;;;;;4.40;1.90;;;;;;;;;;5095003;28;20063;-75
2022/06/11 01:23:31;;;;;;;3.80;2.00;;;;;;;;;;5091307;28;20027;-74
2022/06/11 01:25:58;;;;;;;6.45;2.10;;;;;;;;;;5089824;28;20407;-75
2022/06/11 01:28:26;;;;;;;10.87;4.80;;;;;;;;;;5089608;28;20045;-75
2022/06/11 01:31:07;;;;;;;12.67;5.87;;;;;;;;;;5088621;28;20028;-75
2022/06/11 01:33:52;;;;;;;14.47;6.87;;;;;;;;;;5093946;28;20382;-75
2022/06/11 01:36:22;;;;;;;18.23;7.82;;;;;;;;;;5095039;28;20024;-75
2022/06/11 01:38:52;;;;;;;14.37;6.50;;;;;;;;;;5094469;28;20073;-74
2022/06/11 01:41:19;;;;;;;9.07;4.93;;;;;;;;;;5094917;28;20139;-75
2022/06/11 01:43:47;;;;;;;19.70;7.60;;;;;;;;;;5094687;28;20028;-75
2022/06/11 01:46:25;;;;;;;10.43;5.37;;;;;;;;;;5089167;28;20105;-75
2022/06/11 01:48:57;;;;;;;9.27;4.57;;;;;;;;;;5089425;28;20028;-75
2022/06/11 01:51:31;;;;;;;13.33;4.70;;;;;;;;;;5088927;28;20081;-75
2022/06/11 01:54:09;;;;;;;14.70;5.40;;;;;;;;;;5089314;28;20024;-75
2022/06/11 01:56:41;;;;;;;10.57;4.60;;;;;;;;;;5094635;28;20022;-74
2022/06/11 01:59:26;;;;;;;14.57;5.53;;;;;;;;;;5094402;28;20064;-74
2022/06/11 02:01:59;;;;;;;12.80;5.15;;;;;;;;;;5094269;28;20086;-75
2022/06/11 02:04:43;;;;;;;14.47;7.40;;;;;;;;;;5093969;28;20077;-75
2022/06/11 02:07:13;;;;;;;13.55;5.97;;;;;;;;;;5091099;28;20035;-75
2022/06/11 02:09:47;;;;;;;13.00;6.53;;;;;;;;;;5088884;28;20109;-75
2022/06/11 02:12:13;;;;;;;13.67;5.90;;;;;;;;;;5088840;28;20036;-75
2022/06/11 02:14:44;;;;;;;14.23;5.67;;;;;;;;;;5088769;28;20047;-75
2022/06/11 02:17:14;;;;;;;10.13;5.20;;;;;;;;;;5090500;28;20475;-75
2022/06/11 02:19:44;;;;;;;12.57;5.43;;;;;;;;;;5093855;28;20020;-74
2022/06/11 02:22:31;;;;;;;12.40;5.70;;;;;;;;;;5094051;28;20114;-75
2022/06/11 02:25:01;;;;;;;12.17;5.03;;;;;;;;;;5094040;28;20085;-74
2022/06/11 02:27:30;;;;;;;9.30;5.83;;;;;;;;;;5093902;28;20016;-75
2022/06/11 02:29:57;;;;;;;12.70;6.13;;;;;;;;;;5090191;28;20387;-75
2022/06/11 02:32:25;;;;;;;11.53;5.70;;;;;;;;;;5088486;28;20031;-75
2022/06/11 02:34:53;;;;;;;19.23;5.60;;;;;;;;;;5088724;28;20526;-74
2022/06/11 02:37:26;;;;;;;10.47;4.73;;;;;;;;;;5088216;28;20028;-75
2022/06/11 02:39:53;;;;;;;9.13;4.33;;;;;;;;;;5091325;28;20027;-74
2022/06/11 02:42:21;;;;;;;17.20;5.53;;;;;;;;;;5093647;28;20107;-74
2022/06/11 02:44:48;;;;;;;13.03;3.70;;;;;;;;;;5092662;28;20059;-75
2022/06/11 02:47:16;;;;;;;10.23;4.60;;;;;;;;;;5093649;28;20099;-74
2022/06/11 02:49:42;;;;;;;6.17;2.67;;;;;;;;;;5093731;28;20095;-75
2022/06/11 02:52:11;;;;;;;4.93;2.20;;;;;;;;;;5090318;28;20095;-74
2022/06/11 02:54:38;;;;;;;7.37;2.37;;;;;;;;;;5088038;28;20044;-74
2022/06/11 02:57:06;;;;;;;5.17;1.50;;;;;;;;;;5087958;28;20109;-74
2022/06/11 02:59:32;;;;;;;5.57;1.73;;;;;;;;;;5087979;28;20020;-74
2022/06/11 03:01:59;;;;;;;3.27;1.43;;;;;;;;;;5090244;28;20089;-75
2022/06/11 03:04:27;;;;;;;5.80;1.60;;;;;;;;;;5093373;28;20096;-75
2022/06/11 03:06:54;;;;;;;3.87;1.70;;;;;;;;;;5093188;28;20070;-74
2022/06/11 03:09:25;;;;;;;4.03;1.57;;;;;;;;;;5093308;28;20095;-75
2022/06/11 03:11:52;;;;;;;11.13;2.07;;;;;;;;;;5092665;28;20020;-75
2022/06/11 03:14:19;;;;;;;3.07;1.37;;;;;;;;;;5089870;28;20472;-75
2022/06/11 03:16:47;;;;;;;4.93;2.03;;;;;;;;;;5087034;28;20024;-75
2022/06/11 03:19:14;;;;;;;5.37;1.97;;;;;;;;;;5087593;28;20027;-75
2022/06/11 03:21:41;;;;;;;5.37;1.70;;;;;;;;;;5087777;28;20032;-74
2022/06/11 03:24:08;;;;;;;4.43;1.73;;;;;;;;;;5089705;28;20040;-75
2022/06/11 03:26:35;;;;;;;4.73;1.73;;;;;;;;;;5092766;28;20103;-75
2022/06/11 03:29:02;;;;;;;3.03;1.87;;;;;;;;;;5092834;28;20034;-74
2022/06/11 03:31:29;;;;;;;3.00;1.90;;;;;;;;;;5092672;28;20103;-74
2022/06/11 03:33:55;;;;;;;2.67;1.40;;;;;;;;;;5092451;28;20020;-75
2022/06/11 03:36:22;;;;;;;3.33;1.30;;;;;;;;;;5090162;28;20480;-75
2022/06/11 03:38:49;;;;;;;3.33;1.63;;;;;;;;;;5087280;28;20024;-75
2022/06/11 03:41:17;;;;;;;4.63;1.60;;;;;;;;;;5086983;28;20036;-75
2022/06/11 03:43:44;;;;;;;4.77;1.67;;;;;;;;;;5087146;28;20043;-74
2022/06/11 03:46:10;;;;;;;9.27;2.00;;;;;;;;;;5088834;28;20424;-75
2022/06/11 03:48:38;;;;;;;4.33;1.60;;;;;;;;;;5092127;28;20077;-74
2022/06/11 03:51:06;;;;;;;5.17;1.90;;;;;;;;;;5092223;28;20115;-74
2022/06/11 03:53:34;;;;;;;3.53;1.90;;;;;;;;;;5092614;28;20020;-75
2022/06/11 03:56:00;;;;;;;6.53;2.10;;;;;;;;;;5092490;28;20020;-75
2022/06/11 03:58:27;;;;;;;3.73;2.33;;;;;;;;;;5089856;28;20034;-74
2022/06/11 04:03:40;;;;;;;8.97;5.13;;;;;;;;;;5087029;28;20437;-74
2022/06/11 04:06:07;;;;;;;8.13;3.77;;;;;;;;;;5086892;28;20103;-75
2022/06/11 04:08:34;;;;;;;6.80;3.97;;;;;;;;;;5088765;28;20099;-75
2022/06/11 04:11:02;;;;;;;6.13;3.50;;;;;;;;;;5092093;28;20047;-74
2022/06/11 04:13:29;;;;;;;5.73;3.77;;;;;;;;;;5092328;28;20368;-74
2022/06/11 04:15:57;;;;;;;5.80;2.83;;;;;;;;;;5092030;28;20020;-75
2022/06/11 04:18:24;;;;;;;11.83;3.63;;;;;;;;;;5091987;28;20039;-75
2022/06/11 04:20:50;;;;;;;7.73;2.70;;;;;;;;;;5089950;28;20418;-75
2022/06/11 04:23:17;;;;;;;4.53;2.67;;;;;;;;;;5086171;28;20028;-74
2022/06/11 04:25:45;;;;;;;7.40;2.73;;;;;;;;;;5086450;28;20024;-74
2022/06/11 04:28:12;;;;;;;5.67;2.93;;;;;;;;;;5087021;28;20032;-74
2022/06/11 04:30:39;;;;;;;9.17;3.57;;;;;;;;;;5092060;28;20024;-75
2022/06/11 04:33:07;;;;;;;4.60;2.83;;;;;;;;;;5095870;28;20028;-75
2022/06/11 04:35:33;;;;;;;7.33;3.33;;;;;;;;;;5095987;28;20107;-75
2022/06/11 04:38:00;;;;;;;8.20;3.57;;;;;;;;;;5096019;28;20524;-74
2022/06/11 04:40:27;;;;;;;7.03;3.17;;;;;;;;;;5096325;28;20036;-74
2022/06/11 04:42:54;;;;;;;6.23;2.60;;;;;;;;;;5094434;28;20048;-75
2022/06/11 04:45:21;;;;;;;7.23;2.90;;;;;;;;;;5090523;28;20092;-74
2022/06/11 04:47:48;;;;;;;7.77;2.17;;;;;;;;;;5090421;28;20031;-74
2022/06/11 04:50:16;;;;;;;4.67;2.50;;;;;;;;;;5089793;28;20144;-74
2022/06/11 04:52:43;;;;;;;6.63;2.73;;;;;;;;;;5091002;28;20645;-74
2022/06/11 04:55:10;;;;;;;3.87;2.03;;;;;;;;;;5095818;28;20050;-74
2022/06/11 04:57:37;;;;;;;3.10;1.93;;;;;;;;;;5095790;28;20021;-74
2022/06/11 05:00:05;;;;;;;3.13;1.90;;;;;;;;;;5095361;28;20050;-74
2022/06/11 05:02:32;;;;;;;6.13;3.13;;;;;;;;;;5095789;28;20024;-74
2022/06/11 05:04:58;;;;;;;5.83;2.93;;;;;;;;;;5094189;28;20105;-75
2022/06/11 05:07:25;;;;;;;5.17;2.60;;;;;;;;;;5089952;28;20030;-74
2022/06/11 05:09:52;;;;;;;14.07;3.93;;;;;;;;;;5090063;28;20479;-74
2022/06/11 05:12:19;;;;;;;9.60;2.80;;;;;;;;;;5090122;28;20020;-74
2022/06/11 05:14:45;;;;;;;6.90;2.90;;;;;;;;;;5089780;28;20040;-74
2022/06/11 05:17:12;;;;;;;7.40;2.20;;;;;;;;;;5095530;28;20031;-74
2022/06/11 05:19:39;;;;;;;5.77;1.63;;;;;;;;;;5095532;28;20058;-74
2022/06/11 05:22:06;;;;;;;4.17;2.10;;;;;;;;;;5094893;28;20039;-75
2022/06/11 05:24:32;;;;;;;3.13;1.70;;;;;;;;;;5095245;28;20019;-74
2022/06/11 05:27:02;;;;;;;5.87;1.97;;;;;;;;;;5094664;28;20024;-74
2022/06/11 05:29:56;;;;;;;4.47;1.60;;;;;;;;;;5089634;28;20042;-75
2022/06/11 05:32:23;;;;;;;2.73;1.17;;;;;;;;;;5086521;28;20395;-74
2022/06/11 05:34:50;;;;;;;2.57;1.40;;;;;;;;;;5089577;28;20028;-74
2022/06/11 05:37:17;;;;;;;2.67;1.20;;;;;;;;;;5090054;28;20483;-74
2022/06/11 05:39:46;;;;;;;3.20;1.50;;;;;;;;;;5094763;28;20115;-74
2022/06/11 05:42:13;;;;;;;5.23;1.57;;;;;;;;;;5094792;28;20067;-74
2022/06/11 05:44:40;;;;;;;6.17;1.47;;;;;;;;;;5094678;28;20087;-74
2022/06/11 05:47:07;;;;;;;5.30;1.50;;;;;;;;;;5094385;28;20552;-74
2022/06/11 05:49:37;;;;;;;3.00;1.77;;;;;;;;;;5093724;28;20026;-74
2022/06/11 05:52:06;;;;;;;4.83;2.57;;;;;;;;;;5089601;28;20024;-74
2022/06/11 05:54:34;;;;;;;8.33;3.83;;;;;;;;;;5089830;28;20418;-74
2022/06/11 05:57:01;;;;;;;4.50;2.57;;;;;;;;;;5089761;28;20024;-74
2022/06/11 05:59:30;;;;;;;6.00;2.33;;;;;;;;;;5090192;28;20066;-74
2022/06/11 06:02:00;;;;;;;4.50;2.03;;;;;;;;;;5093004;28;20479;-73
2022/06/11 06:04:26;;;;;;;5.83;2.20;;;;;;;;;;5094779;28;20031;-73
2022/06/11 06:06:53;;;;;;;3.37;1.67;;;;;;;;;;5094773;28;20020;-73
2022/06/11 06:09:20;;;;;;;3.47;2.00;;;;;;;;;;5087224;28;20027;-72
2022/06/11 06:11:47;;;;;;;3.30;1.63;;;;;;;;;;5083161;28;20031;-73
2022/06/11 06:14:13;;;;;;;3.57;1.43;;;;;;;;;;5074328;28;20020;-72
2022/06/11 06:16:40;;;;;;;6.37;2.03;;;;;;;;;;5088823;28;20035;-73
2022/06/11 06:19:06;;;;;;;5.97;1.97;;;;;;;;;;5089081;28;20052;-73
2022/06/11 06:21:35;;;;;;;3.60;1.60;;;;;;;;;;5088913;28;20471;-72
2022/06/11 06:24:03;;;;;;;3.17;1.50;;;;;;;;;;5094070;28;20161;-72
2022/06/11 06:26:29;;;;;;;5.07;1.73;;;;;;;;;;5094360;28;20474;-72
2022/06/11 06:28:56;;;;;;;4.30;1.27;;;;;;;;;;5093968;28;20028;-73
2022/06/11 06:31:23;;;;;;;2.33;1.40;;;;;;;;;;5093597;28;20024;-72
2022/06/11 06:33:51;;;;;;;4.13;1.23;;;;;;;;;;5093135;28;20028;-73
2022/06/11 06:36:18;;;;;;;2.97;1.43;;;;;;;;;;5088397;28;20107;-72
2022/06/11 06:38:45;;;;;;;5.33;1.10;;;;;;;;;;5088580;28;20393;-73
2022/06/11 06:41:13;;;;;;;2.53;1.20;;;;;;;;;;5088959;28;20035;-72
2022/06/11 06:43:40;;;;;;;2.10;1.43;;;;;;;;;;5088390;28;20559;-72
2022/06/11 06:46:07;;;;;;;3.37;1.40;;;;;;;;;;5093403;28;20043;-73
2022/06/11 06:48:34;;;;;;;8.50;1.67;;;;;;;;;;5093117;28;20530;-73
2022/06/11 06:51:01;;;;;;;3.70;1.33;;;;;;;;;;5093095;28;20089;-73
2022/06/11 06:53:28;;;;;;;2.30;1.47;;;;;;;;;;5093066;28;20443;-73
2022/06/11 06:55:55;;;;;;;3.80;1.30;;;;;;;;;;5093646;28;20484;-73
2022/06/11 06:58:22;;;;;;;3.17;1.47;;;;;;;;;;5088284;28;20039;-73
2022/06/11 07:00:48;;;;;;;2.33;1.10;;;;;;;;;;5088657;28;20031;-73
2022/06/11 07:03:16;;;;;;;8.77;1.20;;;;;;;;;;5087892;28;20032;-73
2022/06/11 07:05:43;;;;;;;3.60;1.70;;;;;;;;;;5088545;28;20027;-72
2022/06/11 07:08:10;;;;;;;5.67;1.60;;;;;;;;;;5092533;28;20440;-72
2022/06/11 07:10:37;;;;;;;5.13;1.33;;;;;;;;;;5093231;28;20020;-72
2022/06/11 07:13:03;;;;;;;2.23;1.30;;;;;;;;;;5092928;28;20063;-72
2022/06/11 07:15:30;;;;;;;2.53;1.30;;;;;;;;;;5093207;28;20395;-72
2022/06/11 07:18:02;;;;;;;1.83;1.10;;;;;;;;;;5092692;28;20036;-72
2022/06/11 07:20:31;;;;;;;2.77;1.23;;;;;;;;;;5088323;28;20032;-73
2022/06/11 07:22:58;;;;;;;3.70;1.23;;;;;;;;;;5087503;28;20407;-72
2022/06/11 07:25:25;;;;;;;2.13;1.10;;;;;;;;;;5088042;28;20032;-72
2022/06/11 07:27:55;;;;;;;6.33;1.97;;;;;;;;;;5087518;28;20051;-72
2022/06/11 07:30:24;;;;;;;6.23;1.90;;;;;;;;;;5092265;28;20020;-72
2022/06/11 07:32:53;;;;;;;2.83;1.30;;;;;;;;;;5092082;28;20020;-73
2022/06/11 07:35:20;;;;;;;4.87;1.50;;;;;;;;;;5093107;28;20112;-72
2022/06/11 07:37:48;;;;;;;2.40;1.40;;;;;;;;;;5092635;28;20024;-72
2022/06/11 07:40:16;;;;;;;3.07;1.40;;;;;;;;;;5092935;28;20036;-72
2022/06/11 07:42:42;;;;;;;2.43;1.47;;;;;;;;;;5088064;28;20548;-72
2022/06/11 07:45:09;;;;;;;5.77;1.90;;;;;;;;;;5087301;28;20094;-72
2022/06/11 07:47:54;;;;;;;3.43;1.90;;;;;;;;;;5087414;28;20093;-73
2022/06/11 07:50:26;;;;;;;5.88;1.70;;;;;;;;;;5067587;28;20064;-72
2022/06/11 07:52:53;;;;;;;2.67;1.57;;;;;;;;;;5072869;28;20021;-72
2022/06/11 07:55:19;;;;;;;6.00;1.73;;;;;;;;;;5092692;28;20126;-72
2022/06/11 07:57:46;;;;;;;3.87;1.67;;;;;;;;;;5092499;28;20031;-72
2022/06/11 08:00:15;;;;;;;2.60;1.60;;;;;;;;;;5072194;28;20056;-72
2022/06/11 08:02:41;;;;;;;3.63;1.80;;;;;;;;;;5072362;28;20097;-72
2022/06/11 08:05:08;;;;;;;2.10;1.30;;;;;;;;;;5086358;28;20028;-72
2022/06/11 08:07:35;;;;;;;4.07;1.30;;;;;;;;;;5087253;28;20750;-72
2022/06/11 08:10:02;;;;;;;2.27;1.30;;;;;;;;;;5087201;28;20363;-72
2022/06/11 08:12:28;;;;;;;3.23;1.20;;;;;;;;;;5086547;28;20496;-72
2022/06/11 08:14:56;;;;;;;2.30;1.27;;;;;;;;;;5091428;28;20027;-73
2022/06/11 08:17:24;;;;;;;3.00;1.40;;;;;;;;;;5091913;28;20513;-72
2022/06/11 08:19:51;;;;;;;2.53;1.30;;;;;;;;;;5092529;28;20496;-72
2022/06/11 08:22:18;;;;;;;3.97;1.13;;;;;;;;;;5091962;28;20038;-72
2022/06/11 08:24:45;;;;;;;2.83;1.30;;;;;;;;;;5092207;28;20026;-72
2022/06/11 08:27:12;;;;;;;2.07;1.20;;;;;;;;;;5087470;28;20027;-72
2022/06/11 08:29:38;;;;;;;2.50;1.20;;;;;;;;;;5086552;28;20024;-72
2022/06/11 08:32:06;;;;;;;2.53;1.30;;;;;;;;;;5087069;28;20379;-72
2022/06/11 08:34:36;;;;;;;4.37;1.30;;;;;;;;;;5087141;28;20131;-72
2022/06/11 08:37:02;;;;;;;2.80;1.50;;;;;;;;;;5091104;28;20424;-72
2022/06/11 08:39:29;;;;;;;2.00;1.07;;;;;;;;;;5091682;28;20499;-72
2022/06/11 08:41:57;;;;;;;2.10;1.10;;;;;;;;;;5091880;28;20412;-72
2022/06/11 08:44:24;;;;;;;4.93;1.10;;;;;;;;;;5091913;28;20028;-72
2022/06/11 08:46:50;;;;;;;5.17;1.07;;;;;;;;;;5091925;28;20028;-72
2022/06/11 08:49:22;;;;;;;4.90;1.27;;;;;;;;;;5087656;28;20035;-72
2022/06/11 08:51:55;;;;;;;2.77;1.23;;;;;;;;;;5086571;28;20110;-72
2022/06/11 08:54:26;;;;;;;3.13;1.60;;;;;;;;;;5086909;28;20017;-71
2022/06/11 08:57:11;;;;;;;2.73;1.33;;;;;;;;;;5086360;28;20360;-73
2022/06/11 08:59:56;;;;;;;3.20;1.70;;;;;;;;;;5091799;28;20017;-72
2022/06/11 09:02:52;;;;;;;1.90;1.30;;;;;;;;;;5091622;28;20028;-72
2022/06/11 09:05:18;;;;;;;;;;;;;;;;;;5079234;28;20421;-72
2022/06/11 09:07:45;;;;;;;2.60;1.60;;;;;;;;;;5092013;28;19916;-72
2022/06/11 09:10:14;;;;;;;3.53;1.53;;;;;;;;;;5090116;28;20087;-72
2022/06/11 09:13:07;;;;;;;3.17;1.40;;;;;;;;;;5086625;28;20145;-72
2022/06/11 09:15:42;;;;;;;2.30;1.50;;;;;;;;;;5086286;28;20036;-72
2022/06/11 09:18:27;;;;;;;2.58;1.45;;;;;;;;;;5090462;28;20115;-72
2022/06/11 09:21:12;;;;;;;2.63;1.10;;;;;;;;;;5092591;28;20336;-72
2022/06/11 09:23:39;;;;;;;;;;;;;;;;;;5096095;28;20540;-72
2022/06/11 09:26:08;;;;;;;2.63;1.30;;;;;;;;;;5094847;28;20286;-72
2022/06/11 09:29:01;;;;;;;2.93;1.40;;;;;;;;;;5095274;28;20352;-72
2022/06/11 09:31:34;;;;;;;3.93;1.60;;;;;;;;;;5071687;28;20040;-72
2022/06/11 09:34:01;;;;;;;2.30;1.40;;;;;;;;;;5090104;28;20020;-72
2022/06/11 09:36:38;;;;;;;4.43;1.77;;;;;;;;;;5090039;28;20034;-72
2022/06/11 09:39:23;;;;;;;2.50;1.30;;;;;;;;;;5090274;28;20040;-72
2022/06/11 09:41:57;;;;;;;6.72;1.40;;;;;;;;;;5089933;28;20114;-72
2022/06/11 09:44:44;;;;;;;4.05;1.70;;;;;;;;;;5095016;28;20024;-72
2022/06/11 09:47:26;;;;;;;1.83;1.20;;;;;;;;;;5094353;28;20032;-72
2022/06/11 09:50:08;;;;;;;4.37;1.60;;;;;;;;;;5095092;28;20111;-72
2022/06/11 09:52:44;;;;;;;5.23;1.60;;;;;;;;;;5094096;28;20020;-72
2022/06/11 09:55:14;;;;;;;3.03;1.70;;;;;;;;;;5091860;28;20068;-72
2022/06/11 09:58:05;;;;;;;2.60;1.50;;;;;;;;;;5089462;28;20501;-73
2022/06/11 10:00:54;;;;;;;3.53;1.60;;;;;;;;;;5088851;28;20081;-72
2022/06/11 10:03:29;;;;;;;4.97;1.70;;;;;;;;;;5069503;28;20031;-72
2022/06/11 10:06:06;;;;;;;4.57;1.50;;;;;;;;;;5077464;28;20024;-72
2022/06/11 10:08:37;;;;;;;2.00;1.30;;;;;;;;;;5094281;28;20081;-72
2022/06/11 10:11:05;;;;;;;3.07;1.50;;;;;;;;;;5094439;28;20036;-72
2022/06/11 10:13:32;;;;;;;2.87;1.70;;;;;;;;;;5094479;28;20099;-72
2022/06/11 10:16:09;;;;;;;2.60;1.70;;;;;;;;;;5094149;28;20024;-72
2022/06/11 10:18:37;;;;;;;2.93;1.50;;;;;;;;;;5088966;28;20106;-72
2022/06/11 10:21:11;;;;;;;3.17;1.90;;;;;;;;;;5088897;28;20036;-72
2022/06/11 10:23:47;;;;;;;2.45;1.45;;;;;;;;;;5089329;28;20479;-72
2022/06/11 10:26:18;;;;;;;3.20;1.70;;;;;;;;;;5087541;28;20027;-72
2022/06/11 10:28:48;;;;;;;2.60;1.70;;;;;;;;;;5094278;28;20020;-72
2022/06/11 10:31:16;;;;;;;3.23;1.80;;;;;;;;;;5093582;28;20016;-72
2022/06/11 10:34:01;;;;;;;2.67;1.77;;;;;;;;;;5094032;28;20056;-72
2022/06/11 10:36:35;;;;;;;7.97;1.77;;;;;;;;;;5093661;28;20024;-72
2022/06/11 10:39:14;;;;;;;5.57;1.90;;;;;;;;;;5092287;28;20034;-72
2022/06/11 10:41:46;;;;;;;5.80;2.00;;;;;;;;;;5088533;28;20535;-72
2022/06/11 10:44:33;;;;;;;10.63;2.70;;;;;;;;;;5088985;28;20462;-72
2022/06/11 10:47:00;;;;;;;6.70;2.73;;;;;;;;;;5088468;28;20390;-72
2022/06/11 10:49:29;;;;;;;4.77;2.23;;;;;;;;;;5091016;28;20020;-72
2022/06/11 10:52:02;;;;;;;5.97;2.23;;;;;;;;;;5093476;28;20403;-72
2022/06/11 10:54:29;;;;;;;5.70;1.83;;;;;;;;;;5093645;28;20024;-72
2022/06/11 10:56:58;;;;;;;9.57;2.40;;;;;;;;;;5093440;28;20054;-72
2022/06/11 10:59:25;;;;;;;5.60;2.30;;;;;;;;;;5093694;28;20016;-72
2022/06/11 11:01:57;;;;;;;6.83;3.07;;;;;;;;;;5089903;28;20458;-72
2022/06/11 11:04:30;;;;;;;3.97;2.40;;;;;;;;;;5088564;28;20020;-72
2022/06/11 11:07:32;;;;;;;5.30;2.20;;;;;;;;;;5088241;28;20020;-72
2022/06/11 11:09:59;;;;;;;3.70;2.20;;;;;;;;;;5025601;28;20064;-72
2022/06/11 11:12:33;;;;;;;8.40;2.50;;;;;;;;;;5079312;28;20562;-72
2022/06/11 11:15:26;;;;;;;8.27;3.17;;;;;;;;;;5093505;28;20032;-72
2022/06/11 11:17:54;;;;;;;3.30;1.93;;;;;;;;;;5089668;28;20086;-72
2022/06/11 11:20:30;;;;;;;7.43;2.70;;;;;;;;;;5093321;28;20592;-72
2022/06/11 11:22:58;;;;;;;5.07;2.30;;;;;;;;;;5092398;28;20024;-72
2022/06/11 11:25:34;;;;;;;4.50;2.10;;;;;;;;;;5087683;28;20099;-72
2022/06/11 11:28:01;;;;;;;4.40;2.60;;;;;;;;;;5087475;28;20028;-73
2022/06/11 11:30:54;;;;;;;7.27;2.13;;;;;;;;;;5087785;28;20024;-72
2022/06/11 11:33:26;;;;;;;9.20;2.17;;;;;;;;;;5086507;28;20376;-71
2022/06/11 11:36:04;;;;;;;4.65;2.00;;;;;;;;;;5092305;28;20047;-72
2022/06/11 11:38:31;;;;;;;6.40;2.70;;;;;;;;;;5092638;28;20409;-72
2022/06/11 11:41:02;;;;;;;3.53;2.33;;;;;;;;;;5092066;28;20375;-72
2022/06/11 11:43:40;;;;;;;3.93;2.50;;;;;;;;;;5092401;28;20100;-72
2022/06/11 11:46:12;;;;;;;8.40;2.53;;;;;;;;;;5089810;28;20024;-72
2022/06/11 11:48:45;;;;;;;8.43;3.03;;;;;;;;;;5087724;28;20027;-71
2022/06/11 11:51:18;;;;;;;9.40;2.70;;;;;;;;;;5087514;28;20024;-72
2022/06/11 11:54:04;;;;;;;9.93;2.80;;;;;;;;;;5087776;28;20020;-72
2022/06/11 11:56:31;;;;;;;3.60;2.20;;;;;;;;;;5090238;28;20060;-72
2022/06/11 11:59:02;;;;;;;4.10;2.23;;;;;;;;;;5092330;28;20081;-72
2022/06/11 12:01:30;;;;;;;4.47;2.20;;;;;;;;;;5092226;28;20386;-72
2022/06/11 12:04:17;;;;;;;8.00;3.00;;;;;;;;;;5092836;28;20466;-72
2022/06/11 12:06:47;;;;;;;7.17;2.63;;;;;;;;;;5091649;28;20031;-72
2022/06/11 12:09:27;;;;;;;5.53;2.80;;;;;;;;;;5088070;28;20028;-72
2022/06/11 12:12:09;;;;;;;5.33;2.80;;;;;;;;;;5087200;28;20031;-72
2022/06/11 12:14:41;;;;;;;6.60;3.20;;;;;;;;;;5087042;28;20028;-72
2022/06/11 12:17:34;;;;;;;3.77;2.23;;;;;;;;;;5067001;28;20444;-72
2022/06/11 12:20:03;;;;;;;10.67;4.23;;;;;;;;;;5073066;28;20043;-71
2022/06/11 12:22:37;;;;;;;7.67;4.63;;;;;;;;;;5091919;28;20435;-72
2022/06/11 12:25:05;;;;;;;9.40;4.65;;;;;;;;;;5092140;28;20028;-72
2022/06/11 12:27:40;;;;;;;10.63;4.00;;;;;;;;;;5092370;28;20149;-72
2022/06/11 12:30:12;;;;;;;10.85;4.45;;;;;;;;;;5089863;28;20181;-72
2022/06/11 12:32:39;;;;;;;8.13;3.97;;;;;;;;;;5087385;28;20076;-72
2022/06/11 12:35:24;;;;;;;7.70;4.07;;;;;;;;;;5086368;28;20024;-72
2022/06/11 12:37:51;;;;;;;7.90;3.83;;;;;;;;;;5087336;28;20165;-71
2022/06/11 12:40:24;;;;;;;9.03;4.80;;;;;;;;;;5088816;28;20114;-72
2022/06/11 12:43:02;;;;;;;9.90;4.97;;;;;;;;;;5092225;28;20020;-72
2022/06/11 12:45:34;;;;;;;7.93;4.50;;;;;;;;;;5092006;28;20039;-72
2022/06/11 12:48:08;;;;;;;6.87;4.50;;;;;;;;;;5092250;28;20455;-72
2022/06/11 12:50:48;;;;;;;7.40;4.30;;;;;;;;;;5094097;28;20402;-72
2022/06/11 12:53:35;;;;;;;8.67;4.03;;;;;;;;;;5091916;28;20024;-72
2022/06/11 12:56:07;;;;;;;9.27;4.33;;;;;;;;;;5090908;28;20051;-71
2022/06/11 12:58:40;;;;;;;7.97;4.50;;;;;;;;;;5091015;28;20024;-72
2022/06/11 13:01:25;;;;;;;6.20;3.80;;;;;;;;;;5090243;28;20097;-72
2022/06/11 13:03:55;;;;;;;5.75;3.58;;;;;;;;;;5095653;28;20375;-72
2022/06/11 13:06:28;;;;;;;6.57;3.40;;;;;;;;;;5095334;28;20028;-72
2022/06/11 13:09:01;;;;;;;6.40;3.27;;;;;;;;;;5095740;28;20028;-72
2022/06/11 13:11:34;;;;;;;7.17;4.17;;;;;;;;;;5095261;28;20031;-72
2022/06/11 13:14:19;;;;;;;8.90;4.53;;;;;;;;;;5094951;28;20635;-72
2022/06/11 13:16:57;;;;;;;5.68;3.30;;;;;;;;;;5089434;28;20025;-72
2022/06/11 13:19:42;;;;;;;6.43;4.17;;;;;;;;;;5090266;28;20505;-72
2022/06/11 13:22:24;;;;;;;6.95;4.15;;;;;;;;;;5080992;28;20111;-71
2022/06/11 13:25:04;;;;;;;8.93;3.57;;;;;;;;;;5092254;28;20028;-72
2022/06/11 13:27:40;;;;;;;5.40;3.70;;;;;;;;;;5095158;28;20062;-72
2022/06/11 13:30:16;;;;;;;9.43;4.00;;;;;;;;;;5094894;28;20024;-71
2022/06/11 13:32:45;;;;;;;10.37;3.97;;;;;;;;;;5095579;28;20021;-72
2022/06/11 13:35:24;;;;;;;7.50;3.67;;;;;;;;;;5094426;28;20051;-72
2022/06/11 13:38:04;;;;;;;5.97;3.73;;;;;;;;;;5091008;28;20060;-72
2022/06/11 13:40:54;;;;;;;6.33;3.80;;;;;;;;;;5090000;28;20380;-72
2022/06/11 13:43:29;;;;;;;8.00;3.60;;;;;;;;;;5089791;28;20039;-72
2022/06/11 13:45:59;;;;;;;9.67;3.40;;;;;;;;;;5089099;28;20045;-72
2022/06/11 13:48:35;;;;;;;5.47;3.30;;;;;;;;;;5094877;28;20024;-72
2022/06/11 13:51:14;;;;;;;5.53;3.60;;;;;;;;;;5094642;28;20060;-73
2022/06/11 13:56:52;;;;;;;5.63;3.13;;;;;;;;;;5094572;28;20045;-72
2022/06/11 13:59:28;;;;;;;4.17;2.90;;;;;;;;;;5092051;28;20024;-73
2022/06/11 14:02:04;;;;;;;4.77;3.23;;;;;;;;;;5089287;28;20089;-72
2022/06/11 14:04:43;;;;;;;7.70;3.23;;;;;;;;;;5089109;28;20024;-73
2022/06/11 14:07:11;;;;;;;5.00;3.27;;;;;;;;;;5088765;28;20016;-72
2022/06/11 14:12:43;;;;;;;7.10;3.43;;;;;;;;;;5094521;28;20488;-72
2022/06/11 14:15:12;;;;;;;5.30;3.30;;;;;;;;;;5094841;28;20036;-72
2022/06/11 14:17:39;;;;;;;4.13;2.83;;;;;;;;;;5094072;28;20028;-73
2022/06/11 14:20:24;;;;;;;7.87;3.30;;;;;;;;;;5094001;28;20475;-73
2022/06/11 14:22:55;;;;;;;7.25;2.83;;;;;;;;;;5079510;28;20104;-72
2022/06/11 14:25:35;;;;;;;5.73;2.83;;;;;;;;;;5082799;28;20020;-73
2022/06/11 14:28:17;;;;;;;10.20;3.70;;;;;;;;;;5069128;28;20035;-72
2022/06/11 14:30:53;;;;;;;3.90;2.70;;;;;;;;;;5079091;28;20108;-72
2022/06/11 14:33:20;;;;;;;4.33;2.67;;;;;;;;;;5093077;28;20028;-73
2022/06/11 14:35:49;;;;;;;7.50;2.90;;;;;;;;;;5092613;28;20358;-73
2022/06/11 14:38:30;;;;;;;4.00;2.83;;;;;;;;;;5093994;28;20376;-73
2022/06/11 14:41:09;;;;;;;6.47;3.27;;;;;;;;;;5092305;28;20123;-73
2022/06/11 14:43:52;;;;;;;8.50;4.10;;;;;;;;;;5091224;28;20032;-73
2022/06/11 14:46:44;;;;;;;6.43;4.20;;;;;;;;;;5088482;28;20475;-72
2022/06/11 14:49:15;;;;;;;6.40;3.80;;;;;;;;;;5088776;28;20371;-73
2022/06/11 14:51:44;;;;;;;6.20;3.20;;;;;;;;;;5088501;28;20032;-73
2022/06/11 14:54:25;;;;;;;7.07;4.00;;;;;;;;;;5092314;28;20367;-73
2022/06/11 14:56:58;;;;;;;9.37;3.40;;;;;;;;;;5093014;28;20028;-73
2022/06/11 14:59:34;;;;;;;5.50;3.70;;;;;;;;;;5092025;28;20024;-73
2022/06/11 15:02:19;;;;;;;5.60;4.10;;;;;;;;;;5090329;28;20035;-73
2022/06/11 15:04:45;;;;;;;;;;;;;;;;;;5081304;28;20021;-73
2022/06/11 15:07:33;;;;;;;6.23;3.40;;;;;;;;;;5087540;28;19915;-74
2022/06/11 15:10:05;;;;;;;4.03;2.90;;;;;;;;;;5087860;28;20115;-74
2022/06/11 15:12:32;;;;;;;4.03;2.70;;;;;;;;;;5087561;28;20024;-73
2022/06/11 15:15:03;;;;;;;4.50;2.83;;;;;;;;;;5070155;28;20573;-74
2022/06/11 15:17:55;;;;;;;3.83;2.73;;;;;;;;;;5083784;28;20032;-74